sensor_id;sensor_type;location;lat;lon;timestamp;pressure;altitude;pressure_sealevel;temperature;humidity
77770;BME280;66961;51.482;9.160;2023-06-14T00:00:32;99306.41;;;13.37;55.79
77770;BME280;66961;51.482;9.160;2023-06-14T00:02:57;99314.41;;;13.37;56.89
77770;BME280;66961;51.482;9.160;2023-06-14T00:05:23;99315.53;;;13.28;55.93
77770;BME280;66961;51.482;9.160;2023-06-14T00:07:48;99311.44;;;13.25;55.68
77770;BME280;66961;51.482;9.160;2023-06-14T00:10:14;99312.50;;;13.31;57.04
77770;BME280;66961;51.482;9.160;2023-06-14T00:12:39;99316.75;;;13.25;56.29
77770;BME280;66961;51.482;9.160;2023-06-14T00:15:06;99321.19;;;13.18;56.65
77770;BME280;66961;51.482;9.160;2023-06-14T00:17:31;99321.38;;;13.17;56.12
77770;BME280;66961;51.482;9.160;2023-06-14T00:19:57;99318.72;;;13.17;56.71
77770;BME280;66961;51.482;9.160;2023-06-14T00:22:24;99328.69;;;13.15;56.83
77770;BME280;66961;51.482;9.160;2023-06-14T00:24:49;99329.25;;;13.10;56.64
77770;BME280;66961;51.482;9.160;2023-06-14T00:27:15;99315.66;;;12.99;56.76
77770;BME280;66961;51.482;9.160;2023-06-14T00:29:40;99311.34;;;12.98;56.04
77770;BME280;66961;51.482;9.160;2023-06-14T00:32:05;99328.13;;;12.98;56.72
77770;BME280;66961;51.482;9.160;2023-06-14T00:34:31;99329.53;;;12.94;57.49
77770;BME280;66961;51.482;9.160;2023-06-14T00:36:56;99324.94;;;12.88;57.41
77770;BME280;66961;51.482;9.160;2023-06-14T00:39:21;99327.34;;;12.83;57.67
77770;BME280;66961;51.482;9.160;2023-06-14T00:41:46;99320.94;;;12.77;58.38
77770;BME280;66961;51.482;9.160;2023-06-14T00:44:16;99318.59;;;12.68;57.75
77770;BME280;66961;51.482;9.160;2023-06-14T00:46:42;99319.97;;;12.64;58.48
77770;BME280;66961;51.482;9.160;2023-06-14T00:49:07;99321.34;;;12.59;58.68
77770;BME280;66961;51.482;9.160;2023-06-14T00:51:33;99311.00;;;12.50;58.26
77770;BME280;66961;51.482;9.160;2023-06-14T00:53:58;99308.03;;;12.38;58.66
77770;BME280;66961;51.482;9.160;2023-06-14T00:56:23;99317.47;;;12.41;59.72
77770;BME280;66961;51.482;9.160;2023-06-14T00:58:49;99321.31;;;12.38;59.70
77770;BME280;66961;51.482;9.160;2023-06-14T01:01:14;99323.25;;;12.30;59.73
77770;BME280;66961;51.482;9.160;2023-06-14T01:03:40;99318.28;;;12.26;60.44
77770;BME280;66961;51.482;9.160;2023-06-14T01:06:20;99325.34;;;12.19;61.24
77770;BME280;66961;51.482;9.160;2023-06-14T01:08:47;99332.84;;;12.16;61.15
77770;BME280;66961;51.482;9.160;2023-06-14T01:11:30;99330.47;;;12.06;60.92
77770;BME280;66961;51.482;9.160;2023-06-14T01:14:00;99338.97;;;12.02;61.21
77770;BME280;66961;51.482;9.160;2023-06-14T01:16:27;99329.66;;;11.91;61.44
77770;BME280;66961;51.482;9.160;2023-06-14T01:18:54;99333.03;;;11.85;61.98
77770;BME280;66961;51.482;9.160;2023-06-14T01:21:23;99334.75;;;11.78;62.13
77770;BME280;66961;51.482;9.160;2023-06-14T01:23:48;99336.09;;;11.74;62.67
77770;BME280;66961;51.482;9.160;2023-06-14T01:26:13;99327.19;;;11.67;63.05
77770;BME280;66961;51.482;9.160;2023-06-14T01:28:39;99329.94;;;11.58;64.01
77770;BME280;66961;51.482;9.160;2023-06-14T01:31:05;99338.59;;;11.52;63.49
77770;BME280;66961;51.482;9.160;2023-06-14T01:33:32;99333.00;;;11.47;64.37
77770;BME280;66961;51.482;9.160;2023-06-14T01:35:58;99328.97;;;11.37;63.91
77770;BME280;66961;51.482;9.160;2023-06-14T01:38:27;99339.22;;;11.40;63.88
77770;BME280;66961;51.482;9.160;2023-06-14T01:40:55;99326.56;;;11.27;65.12
77770;BME280;66961;51.482;9.160;2023-06-14T01:43:23;99334.88;;;11.24;64.86
77770;BME280;66961;51.482;9.160;2023-06-14T01:45:50;99320.31;;;11.20;64.82
77770;BME280;66961;51.482;9.160;2023-06-14T01:48:16;99332.44;;;11.14;65.39
77770;BME280;66961;51.482;9.160;2023-06-14T01:50:42;99331.50;;;11.07;66.32
77770;BME280;66961;51.482;9.160;2023-06-14T01:53:08;99338.81;;;11.05;66.25
77770;BME280;66961;51.482;9.160;2023-06-14T01:55:34;99333.34;;;11.07;67.03
77770;BME280;66961;51.482;9.160;2023-06-14T01:57:59;99328.19;;;11.05;66.92
77770;BME280;66961;51.482;9.160;2023-06-14T02:00:24;99335.03;;;11.00;67.28
77770;BME280;66961;51.482;9.160;2023-06-14T02:02:50;99324.56;;;10.83;67.72
77770;BME280;66961;51.482;9.160;2023-06-14T02:05:15;99335.97;;;10.84;67.93
77770;BME280;66961;51.482;9.160;2023-06-14T02:07:40;99331.91;;;10.73;67.46
77770;BME280;66961;51.482;9.160;2023-06-14T02:10:06;99332.59;;;10.67;67.84
77770;BME280;66961;51.482;9.160;2023-06-14T02:12:32;99325.34;;;10.61;68.25
77770;BME280;66961;51.482;9.160;2023-06-14T02:14:57;99328.97;;;10.60;68.45
77770;BME280;66961;51.482;9.160;2023-06-14T02:17:22;99327.34;;;10.59;68.93
77770;BME280;66961;51.482;9.160;2023-06-14T02:19:48;99332.97;;;10.56;69.14
77770;BME280;66961;51.482;9.160;2023-06-14T02:22:13;99328.84;;;10.53;68.54
77770;BME280;66961;51.482;9.160;2023-06-14T02:24:39;99335.09;;;10.60;68.41
77770;BME280;66961;51.482;9.160;2023-06-14T02:27:04;99334.94;;;10.62;68.96
77770;BME280;66961;51.482;9.160;2023-06-14T02:29:30;99334.94;;;10.62;68.39
77770;BME280;66961;51.482;9.160;2023-06-14T02:31:55;99329.63;;;10.62;67.91
77770;BME280;66961;51.482;9.160;2023-06-14T02:34:20;99340.88;;;10.64;67.94
77770;BME280;66961;51.482;9.160;2023-06-14T02:36:45;99332.50;;;10.52;68.55
77770;BME280;66961;51.482;9.160;2023-06-14T02:39:11;99342.13;;;10.45;68.92
77770;BME280;66961;51.482;9.160;2023-06-14T02:41:36;99344.34;;;10.34;68.58
77770;BME280;66961;51.482;9.160;2023-06-14T02:44:02;99342.38;;;10.27;69.35
77770;BME280;66961;51.482;9.160;2023-06-14T02:46:27;99341.38;;;10.28;69.65
77770;BME280;66961;51.482;9.160;2023-06-14T02:48:53;99343.72;;;10.23;69.45
77770;BME280;66961;51.482;9.160;2023-06-14T02:51:18;99342.56;;;10.26;69.40
77770;BME280;66961;51.482;9.160;2023-06-14T02:53:43;99344.22;;;10.27;69.54
77770;BME280;66961;51.482;9.160;2023-06-14T02:56:09;99340.41;;;10.21;69.26
77770;BME280;66961;51.482;9.160;2023-06-14T02:58:36;99344.19;;;10.19;69.25
77770;BME280;66961;51.482;9.160;2023-06-14T03:01:01;99344.38;;;10.09;69.46
77770;BME280;66961;51.482;9.160;2023-06-14T03:03:27;99347.06;;;10.01;69.82
77770;BME280;66961;51.482;9.160;2023-06-14T03:05:52;99346.91;;;9.94;69.62
77770;BME280;66961;51.482;9.160;2023-06-14T03:08:17;99351.03;;;9.89;70.09
77770;BME280;66961;51.482;9.160;2023-06-14T03:10:43;99346.13;;;9.86;70.73
77770;BME280;66961;51.482;9.160;2023-06-14T03:13:09;99350.75;;;9.84;70.63
77770;BME280;66961;51.482;9.160;2023-06-14T03:15:34;99352.88;;;9.88;70.08
77770;BME280;66961;51.482;9.160;2023-06-14T03:17:59;99349.88;;;9.91;70.14
77770;BME280;66961;51.482;9.160;2023-06-14T03:20:25;99349.56;;;9.94;69.83
77770;BME280;66961;51.482;9.160;2023-06-14T03:22:50;99354.03;;;9.94;69.72
77770;BME280;66961;51.482;9.160;2023-06-14T03:25:16;99352.53;;;9.91;69.86
77770;BME280;66961;51.482;9.160;2023-06-14T03:27:41;99356.16;;;9.99;69.93
77770;BME280;66961;51.482;9.160;2023-06-14T03:30:07;99363.63;;;9.95;70.02
77770;BME280;66961;51.482;9.160;2023-06-14T03:32:32;99368.25;;;10.01;70.03
77770;BME280;66961;51.482;9.160;2023-06-14T03:34:58;99369.72;;;10.04;69.98
77770;BME280;66961;51.482;9.160;2023-06-14T03:37:23;99372.72;;;10.01;70.23
77770;BME280;66961;51.482;9.160;2023-06-14T03:39:48;99371.38;;;9.96;70.11
77770;BME280;66961;51.482;9.160;2023-06-14T03:42:13;99376.53;;;9.98;70.05
77770;BME280;66961;51.482;9.160;2023-06-14T03:44:39;99368.09;;;9.94;70.27
77770;BME280;66961;51.482;9.160;2023-06-14T03:47:04;99371.22;;;9.98;69.97
77770;BME280;66961;51.482;9.160;2023-06-14T03:49:30;99378.00;;;10.01;70.13
77770;BME280;66961;51.482;9.160;2023-06-14T03:51:55;99390.41;;;10.08;69.81
77770;BME280;66961;51.482;9.160;2023-06-14T03:54:20;99377.16;;;10.16;70.62
77770;BME280;66961;51.482;9.160;2023-06-14T03:56:46;99384.09;;;10.25;70.14
77770;BME280;66961;51.482;9.160;2023-06-14T03:59:11;99378.13;;;10.40;69.53
77770;BME280;66961;51.482;9.160;2023-06-14T04:01:36;99383.53;;;10.46;68.67
77770;BME280;66961;51.482;9.160;2023-06-14T04:04:01;99405.56;;;10.47;68.16
77770;BME280;66961;51.482;9.160;2023-06-14T04:06:27;99403.56;;;10.49;68.80
77770;BME280;66961;51.482;9.160;2023-06-14T04:08:52;99405.22;;;10.50;68.97
77770;BME280;66961;51.482;9.160;2023-06-14T04:11:17;99417.28;;;10.52;69.02
77770;BME280;66961;51.482;9.160;2023-06-14T04:13:44;99412.84;;;10.45;69.12
77770;BME280;66961;51.482;9.160;2023-06-14T04:16:09;99417.66;;;10.41;68.75
77770;BME280;66961;51.482;9.160;2023-06-14T04:18:34;99417.31;;;10.44;69.81
77770;BME280;66961;51.482;9.160;2023-06-14T04:21:00;99417.63;;;10.49;68.78
77770;BME280;66961;51.482;9.160;2023-06-14T04:23:25;99426.25;;;10.51;69.05
77770;BME280;66961;51.482;9.160;2023-06-14T04:25:50;99426.72;;;10.55;69.04
77770;BME280;66961;51.482;9.160;2023-06-14T04:28:16;99428.69;;;10.61;68.92
77770;BME280;66961;51.482;9.160;2023-06-14T04:30:42;99424.53;;;10.67;69.32
77770;BME280;66961;51.482;9.160;2023-06-14T04:33:07;99422.81;;;10.82;69.51
77770;BME280;66961;51.482;9.160;2023-06-14T04:35:33;99435.88;;;10.91;69.69
77770;BME280;66961;51.482;9.160;2023-06-14T04:37:58;99430.50;;;11.00;69.65
77770;BME280;66961;51.482;9.160;2023-06-14T04:40:24;99422.63;;;11.14;68.93
77770;BME280;66961;51.482;9.160;2023-06-14T04:42:49;99419.13;;;11.22;68.60
77770;BME280;66961;51.482;9.160;2023-06-14T04:45:15;99429.63;;;11.38;69.51
77770;BME280;66961;51.482;9.160;2023-06-14T04:47:40;99430.72;;;11.44;70.95
77770;BME280;66961;51.482;9.160;2023-06-14T04:50:05;99428.47;;;11.41;70.96
77770;BME280;66961;51.482;9.160;2023-06-14T04:52:31;99433.59;;;11.42;71.49
77770;BME280;66961;51.482;9.160;2023-06-14T04:54:56;99434.16;;;11.52;71.39
77770;BME280;66961;51.482;9.160;2023-06-14T04:57:21;99439.72;;;11.66;70.68
77770;BME280;66961;51.482;9.160;2023-06-14T04:59:47;99448.88;;;11.86;69.50
77770;BME280;66961;51.482;9.160;2023-06-14T05:02:12;99438.19;;;11.94;68.08
77770;BME280;66961;51.482;9.160;2023-06-14T05:04:38;99445.53;;;12.07;67.54
77770;BME280;66961;51.482;9.160;2023-06-14T05:07:04;99445.72;;;12.20;66.71
77770;BME280;66961;51.482;9.160;2023-06-14T05:09:29;99452.72;;;12.36;66.04
77770;BME280;66961;51.482;9.160;2023-06-14T05:11:54;99450.44;;;12.47;65.97
77770;BME280;66961;51.482;9.160;2023-06-14T05:14:19;99445.19;;;12.54;65.57
77770;BME280;66961;51.482;9.160;2023-06-14T05:16:45;99440.72;;;12.54;65.16
77770;BME280;66961;51.482;9.160;2023-06-14T05:19:10;99436.41;;;12.68;65.10
77770;BME280;66961;51.482;9.160;2023-06-14T05:21:36;99448.88;;;12.82;65.37
77770;BME280;66961;51.482;9.160;2023-06-14T05:24:01;99450.63;;;12.90;64.78
77770;BME280;66961;51.482;9.160;2023-06-14T05:26:27;99446.63;;;13.01;64.59
77770;BME280;66961;51.482;9.160;2023-06-14T05:28:52;99453.88;;;13.07;65.04
77770;BME280;66961;51.482;9.160;2023-06-14T05:31:17;99452.94;;;13.14;64.54
77770;BME280;66961;51.482;9.160;2023-06-14T05:33:43;99452.31;;;13.27;63.90
77770;BME280;66961;51.482;9.160;2023-06-14T05:36:08;99464.31;;;13.38;63.48
77770;BME280;66961;51.482;9.160;2023-06-14T05:38:33;99462.41;;;13.53;62.67
77770;BME280;66961;51.482;9.160;2023-06-14T05:40:59;99468.88;;;13.65;62.86
77770;BME280;66961;51.482;9.160;2023-06-14T05:43:24;99463.44;;;13.73;62.19
77770;BME280;66961;51.482;9.160;2023-06-14T05:45:49;99467.88;;;13.87;61.85
77770;BME280;66961;51.482;9.160;2023-06-14T05:48:14;99474.16;;;14.01;61.36
77770;BME280;66961;51.482;9.160;2023-06-14T05:50:40;99469.91;;;14.13;60.62
77770;BME280;66961;51.482;9.160;2023-06-14T05:53:05;99473.72;;;14.25;61.11
77770;BME280;66961;51.482;9.160;2023-06-14T05:55:30;99483.84;;;14.37;60.39
77770;BME280;66961;51.482;9.160;2023-06-14T05:57:56;99481.91;;;14.45;60.82
77770;BME280;66961;51.482;9.160;2023-06-14T06:00:22;99472.72;;;14.54;58.69
77770;BME280;66961;51.482;9.160;2023-06-14T06:02:47;99482.03;;;14.72;58.79
77770;BME280;66961;51.482;9.160;2023-06-14T06:05:13;99475.94;;;14.78;58.24
77770;BME280;66961;51.482;9.160;2023-06-14T06:07:39;99470.63;;;14.84;57.67
77770;BME280;66961;51.482;9.160;2023-06-14T06:10:04;99476.25;;;14.96;57.43
77770;BME280;66961;51.482;9.160;2023-06-14T06:12:30;99480.56;;;14.97;56.99
77770;BME280;66961;51.482;9.160;2023-06-14T06:14:55;99477.28;;;15.02;56.64
77770;BME280;66961;51.482;9.160;2023-06-14T06:17:20;99474.44;;;15.10;56.70
77770;BME280;66961;51.482;9.160;2023-06-14T06:19:46;99481.06;;;15.27;56.60
77770;BME280;66961;51.482;9.160;2023-06-14T06:22:11;99477.59;;;15.33;57.15
77770;BME280;66961;51.482;9.160;2023-06-14T06:24:37;99486.28;;;15.42;55.57
77770;BME280;66961;51.482;9.160;2023-06-14T06:27:02;99477.66;;;15.46;56.22
77770;BME280;66961;51.482;9.160;2023-06-14T06:29:28;99483.66;;;15.55;54.49
77770;BME280;66961;51.482;9.160;2023-06-14T06:31:53;99491.69;;;15.68;54.89
77770;BME280;66961;51.482;9.160;2023-06-14T06:34:18;99484.31;;;15.70;53.95
77770;BME280;66961;51.482;9.160;2023-06-14T06:36:44;99488.44;;;15.79;54.09
77770;BME280;66961;51.482;9.160;2023-06-14T06:39:09;99485.38;;;15.89;54.70
77770;BME280;66961;51.482;9.160;2023-06-14T06:41:34;99483.13;;;15.93;53.78
77770;BME280;66961;51.482;9.160;2023-06-14T06:43:59;99491.56;;;16.03;53.57
77770;BME280;66961;51.482;9.160;2023-06-14T06:46:25;99490.09;;;16.13;53.96
77770;BME280;66961;51.482;9.160;2023-06-14T06:48:50;99495.03;;;16.23;53.38
77770;BME280;66961;51.482;9.160;2023-06-14T06:51:15;99487.84;;;16.30;53.20
77770;BME280;66961;51.482;9.160;2023-06-14T06:53:42;99497.31;;;16.26;53.59
77770;BME280;66961;51.482;9.160;2023-06-14T06:56:07;99493.81;;;16.45;53.81
77770;BME280;66961;51.482;9.160;2023-06-14T06:58:32;99501.41;;;16.62;52.59
77770;BME280;66961;51.482;9.160;2023-06-14T07:00:57;99494.00;;;16.70;53.24
77770;BME280;66961;51.482;9.160;2023-06-14T07:03:23;99509.63;;;16.80;52.27
77770;BME280;66961;51.482;9.160;2023-06-14T07:05:48;99506.75;;;16.81;52.61
77770;BME280;66961;51.482;9.160;2023-06-14T07:08:13;99511.69;;;16.78;51.24
77770;BME280;66961;51.482;9.160;2023-06-14T07:10:39;99516.03;;;16.59;50.79
77770;BME280;66961;51.482;9.160;2023-06-14T07:13:04;99512.31;;;16.60;50.34
77770;BME280;66961;51.482;9.160;2023-06-14T07:15:29;99515.19;;;16.65;51.72
77770;BME280;66961;51.482;9.160;2023-06-14T07:17:54;99521.97;;;16.74;51.70
77770;BME280;66961;51.482;9.160;2023-06-14T07:20:20;99517.88;;;16.72;51.24
77770;BME280;66961;51.482;9.160;2023-06-14T07:22:45;99515.38;;;16.77;50.84
77770;BME280;66961;51.482;9.160;2023-06-14T07:25:11;99529.38;;;16.85;51.19
77770;BME280;66961;51.482;9.160;2023-06-14T07:27:36;99523.22;;;16.72;50.98
77770;BME280;66961;51.482;9.160;2023-06-14T07:30:02;99520.31;;;16.86;52.55
77770;BME280;66961;51.482;9.160;2023-06-14T07:32:27;99513.28;;;16.99;51.74
77770;BME280;66961;51.482;9.160;2023-06-14T07:34:52;99522.13;;;17.06;51.30
77770;BME280;66961;51.482;9.160;2023-06-14T07:37:18;99520.00;;;17.21;51.98
77770;BME280;66961;51.482;9.160;2023-06-14T07:39:43;99514.34;;;17.42;50.79
77770;BME280;66961;51.482;9.160;2023-06-14T07:42:08;99512.03;;;17.52;47.49
77770;BME280;66961;51.482;9.160;2023-06-14T07:44:33;99518.03;;;17.48;49.12
77770;BME280;66961;51.482;9.160;2023-06-14T07:46:59;99519.25;;;17.52;49.20
77770;BME280;66961;51.482;9.160;2023-06-14T07:49:24;99512.66;;;17.54;48.56
77770;BME280;66961;51.482;9.160;2023-06-14T07:51:49;99517.28;;;17.79;49.23
77770;BME280;66961;51.482;9.160;2023-06-14T07:54:14;99514.16;;;17.82;48.26
77770;BME280;66961;51.482;9.160;2023-06-14T07:56:40;99520.84;;;18.04;48.01
77770;BME280;66961;51.482;9.160;2023-06-14T07:59:05;99526.81;;;18.06;47.61
77770;BME280;66961;51.482;9.160;2023-06-14T08:01:30;99521.19;;;18.14;47.60
77770;BME280;66961;51.482;9.160;2023-06-14T08:03:55;99522.81;;;18.15;47.24
77770;BME280;66961;51.482;9.160;2023-06-14T08:06:21;99521.00;;;18.09;47.88
77770;BME280;66961;51.482;9.160;2023-06-14T08:08:46;99526.84;;;18.25;46.76
77770;BME280;66961;51.482;9.160;2023-06-14T08:11:11;99527.75;;;18.43;47.09
77770;BME280;66961;51.482;9.160;2023-06-14T08:13:37;99514.63;;;18.60;46.99
77770;BME280;66961;51.482;9.160;2023-06-14T08:16:02;99524.13;;;18.81;46.06
77770;BME280;66961;51.482;9.160;2023-06-14T08:18:27;99525.78;;;18.57;44.73
77770;BME280;66961;51.482;9.160;2023-06-14T08:20:53;99526.56;;;18.64;46.61
77770;BME280;66961;51.482;9.160;2023-06-14T08:23:18;99524.19;;;18.74;46.96
77770;BME280;66961;51.482;9.160;2023-06-14T08:25:43;99528.63;;;19.05;45.74
77770;BME280;66961;51.482;9.160;2023-06-14T08:28:09;99531.38;;;18.99;44.29
77770;BME280;66961;51.482;9.160;2023-06-14T08:30:34;99536.44;;;18.89;44.24
77770;BME280;66961;51.482;9.160;2023-06-14T08:32:59;99535.22;;;18.66;44.52
77770;BME280;66961;51.482;9.160;2023-06-14T08:35:25;99531.13;;;18.82;45.16
77770;BME280;66961;51.482;9.160;2023-06-14T08:37:50;99534.84;;;18.63;46.25
77770;BME280;66961;51.482;9.160;2023-06-14T08:40:20;99536.72;;;18.56;45.87
77770;BME280;66961;51.482;9.160;2023-06-14T08:42:53;99535.56;;;18.45;46.92
77770;BME280;66961;51.482;9.160;2023-06-14T08:45:23;99547.34;;;18.94;45.74
77770;BME280;66961;51.482;9.160;2023-06-14T08:47:49;99536.66;;;19.60;46.14
77770;BME280;66961;51.482;9.160;2023-06-14T08:50:15;99537.41;;;19.49;44.96
77770;BME280;66961;51.482;9.160;2023-06-14T08:52:45;99543.84;;;19.11;45.99
77770;BME280;66961;51.482;9.160;2023-06-14T08:55:13;99542.72;;;19.19;45.07
77770;BME280;66961;51.482;9.160;2023-06-14T08:57:39;99547.44;;;19.60;44.70
77770;BME280;66961;51.482;9.160;2023-06-14T09:00:05;99537.56;;;19.84;44.85
77770;BME280;66961;51.482;9.160;2023-06-14T09:02:31;99533.66;;;19.98;42.93
77770;BME280;66961;51.482;9.160;2023-06-14T09:04:56;99525.47;;;20.05;42.16
77770;BME280;66961;51.482;9.160;2023-06-14T09:07:21;99533.56;;;20.05;42.58
77770;BME280;66961;51.482;9.160;2023-06-14T09:09:46;99538.41;;;20.26;42.07
77770;BME280;66961;51.482;9.160;2023-06-14T09:12:12;99546.34;;;20.21;41.52
77770;BME280;66961;51.482;9.160;2023-06-14T09:14:37;99549.22;;;19.78;42.84
77770;BME280;66961;51.482;9.160;2023-06-14T09:17:03;99549.13;;;19.73;43.22
77770;BME280;66961;51.482;9.160;2023-06-14T09:19:28;99531.53;;;20.00;42.99
77770;BME280;66961;51.482;9.160;2023-06-14T09:24:56;99545.28;;;20.10;41.27
77770;BME280;66961;51.482;9.160;2023-06-14T09:27:22;99545.63;;;20.14;41.26
77770;BME280;66961;51.482;9.160;2023-06-14T09:29:47;99551.28;;;19.94;41.64
77770;BME280;66961;51.482;9.160;2023-06-14T09:32:12;99539.28;;;20.08;41.41
77770;BME280;66961;51.482;9.160;2023-06-14T09:34:37;99550.69;;;20.22;40.96
77770;BME280;66961;51.482;9.160;2023-06-14T09:37:03;99552.66;;;20.15;42.06
77770;BME280;66961;51.482;9.160;2023-06-14T09:39:29;99546.31;;;20.09;40.92
77770;BME280;66961;51.482;9.160;2023-06-14T09:41:54;99556.53;;;20.31;41.19
77770;BME280;66961;51.482;9.160;2023-06-14T09:44:20;99553.56;;;20.62;41.98
77770;BME280;66961;51.482;9.160;2023-06-14T09:46:46;99551.22;;;21.01;40.57
77770;BME280;66961;51.482;9.160;2023-06-14T09:49:12;99549.59;;;21.23;41.50
77770;BME280;66961;51.482;9.160;2023-06-14T09:51:43;99549.09;;;21.03;39.74
77770;BME280;66961;51.482;9.160;2023-06-14T09:54:13;99547.50;;;20.67;40.28
77770;BME280;66961;51.482;9.160;2023-06-14T09:56:45;99551.44;;;20.53;41.09
77770;BME280;66961;51.482;9.160;2023-06-14T09:59:12;99551.22;;;20.54;39.82
77770;BME280;66961;51.482;9.160;2023-06-14T10:01:42;99550.75;;;20.80;39.67
77770;BME280;66961;51.482;9.160;2023-06-14T10:04:07;99556.72;;;21.06;39.54
77770;BME280;66961;51.482;9.160;2023-06-14T10:06:40;99549.78;;;21.33;40.10
77770;BME280;66961;51.482;9.160;2023-06-14T10:09:08;99551.28;;;21.41;38.94
77770;BME280;66961;51.482;9.160;2023-06-14T10:11:35;99553.44;;;21.15;38.86
77770;BME280;66961;51.482;9.160;2023-06-14T10:14:01;99537.97;;;21.63;38.73
77770;BME280;66961;51.482;9.160;2023-06-14T10:16:39;99540.91;;;21.90;39.58
77770;BME280;66961;51.482;9.160;2023-06-14T10:19:17;99543.22;;;21.98;36.45
77770;BME280;66961;51.482;9.160;2023-06-14T10:21:54;99546.56;;;22.17;38.72
77770;BME280;66961;51.482;9.160;2023-06-14T10:24:29;99531.91;;;22.12;36.07
77770;BME280;66961;51.482;9.160;2023-06-14T10:26:57;99548.94;;;22.30;37.51
77770;BME280;66961;51.482;9.160;2023-06-14T10:29:23;99542.22;;;22.16;36.53
77770;BME280;66961;51.482;9.160;2023-06-14T10:31:53;99547.31;;;22.29;37.71
77770;BME280;66961;51.482;9.160;2023-06-14T10:34:30;99551.31;;;22.76;37.14
77770;BME280;66961;51.482;9.160;2023-06-14T10:39:29;99539.91;;;22.07;36.57
77770;BME280;66961;51.482;9.160;2023-06-14T10:41:56;99539.81;;;21.74;37.25
77770;BME280;66961;51.482;9.160;2023-06-14T10:46:52;99535.38;;;22.97;35.07
77770;BME280;66961;51.482;9.160;2023-06-14T10:49:18;99531.06;;;22.96;34.30
77770;BME280;66961;51.482;9.160;2023-06-14T10:51:54;99535.78;;;22.84;34.59
77770;BME280;66961;51.482;9.160;2023-06-14T10:54:22;99528.97;;;22.31;35.69
77770;BME280;66961;51.482;9.160;2023-06-14T10:56:52;99523.50;;;21.97;37.08
77770;BME280;66961;51.482;9.160;2023-06-14T10:59:19;99529.19;;;22.46;36.78
77770;BME280;66961;51.482;9.160;2023-06-14T11:04:59;99521.84;;;23.35;34.81
77770;BME280;66961;51.482;9.160;2023-06-14T11:07:48;99524.09;;;23.65;33.46
77770;BME280;66961;51.482;9.160;2023-06-14T11:10:41;99523.44;;;22.93;35.31
77770;BME280;66961;51.482;9.160;2023-06-14T11:13:07;99516.75;;;23.17;35.67
77770;BME280;66961;51.482;9.160;2023-06-14T11:15:34;99521.38;;;23.87;34.68
77770;BME280;66961;51.482;9.160;2023-06-14T11:18:05;99518.06;;;24.39;34.68
77770;BME280;66961;51.482;9.160;2023-06-14T11:20:32;99521.44;;;24.56;32.01
77770;BME280;66961;51.482;9.160;2023-06-14T11:22:58;99516.53;;;24.21;32.68
77770;BME280;66961;51.482;9.160;2023-06-14T11:25:24;99515.28;;;23.75;32.31
77770;BME280;66961;51.482;9.160;2023-06-14T11:27:50;99505.25;;;24.02;32.76
77770;BME280;66961;51.482;9.160;2023-06-14T11:30:16;99506.84;;;24.25;32.17
77770;BME280;66961;51.482;9.160;2023-06-14T11:32:41;99510.69;;;24.71;32.16
77770;BME280;66961;51.482;9.160;2023-06-14T11:35:08;99505.28;;;24.71;31.01
77770;BME280;66961;51.482;9.160;2023-06-14T11:37:33;99502.53;;;24.66;29.58
77770;BME280;66961;51.482;9.160;2023-06-14T11:39:59;99501.94;;;25.01;31.65
77770;BME280;66961;51.482;9.160;2023-06-14T11:42:27;99499.59;;;24.73;30.82
77770;BME280;66961;51.482;9.160;2023-06-14T11:44:53;99504.81;;;24.85;30.49
77770;BME280;66961;51.482;9.160;2023-06-14T11:47:18;99500.31;;;24.58;31.16
77770;BME280;66961;51.482;9.160;2023-06-14T11:49:44;99506.34;;;24.28;30.95
77770;BME280;66961;51.482;9.160;2023-06-14T11:52:09;99507.94;;;24.66;31.27
77770;BME280;66961;51.482;9.160;2023-06-14T11:54:34;99498.38;;;24.54;31.42
77770;BME280;66961;51.482;9.160;2023-06-14T11:57:00;99505.25;;;25.14;30.47
77770;BME280;66961;51.482;9.160;2023-06-14T11:59:25;99495.28;;;25.29;29.58
77770;BME280;66961;51.482;9.160;2023-06-14T12:01:53;99491.53;;;25.51;28.37
77770;BME280;66961;51.482;9.160;2023-06-14T12:04:26;99491.50;;;25.30;28.46
77770;BME280;66961;51.482;9.160;2023-06-14T12:06:52;99498.59;;;24.84;29.73
77770;BME280;66961;51.482;9.160;2023-06-14T12:09:17;99480.97;;;24.87;30.50
77770;BME280;66961;51.482;9.160;2023-06-14T12:11:42;99485.09;;;25.67;28.92
77770;BME280;66961;51.482;9.160;2023-06-14T12:14:08;99477.00;;;25.82;30.66
77770;BME280;66961;51.482;9.160;2023-06-14T12:16:36;99484.34;;;25.97;28.06
77770;BME280;66961;51.482;9.160;2023-06-14T12:19:15;99484.66;;;26.36;27.94
77770;BME280;66961;51.482;9.160;2023-06-14T12:21:42;99481.88;;;25.80;28.74
77770;BME280;66961;51.482;9.160;2023-06-14T12:24:08;99488.44;;;25.12;28.37
77770;BME280;66961;51.482;9.160;2023-06-14T12:26:37;99482.00;;;24.75;29.06
77770;BME280;66961;51.482;9.160;2023-06-14T12:29:05;99492.41;;;24.20;29.99
77770;BME280;66961;51.482;9.160;2023-06-14T12:31:30;99489.97;;;24.97;30.18
77770;BME280;66961;51.482;9.160;2023-06-14T12:33:56;99488.53;;;24.37;29.05
77770;BME280;66961;51.482;9.160;2023-06-14T12:36:21;99487.16;;;24.08;29.29
77770;BME280;66961;51.482;9.160;2023-06-14T12:38:46;99495.31;;;24.45;29.89
77770;BME280;66961;51.482;9.160;2023-06-14T12:41:12;99486.97;;;24.52;29.33
77770;BME280;66961;51.482;9.160;2023-06-14T12:43:37;99485.09;;;25.67;29.01
77770;BME280;66961;51.482;9.160;2023-06-14T12:46:02;99474.28;;;25.87;28.46
77770;BME280;66961;51.482;9.160;2023-06-14T12:48:27;99483.22;;;26.64;27.52
77770;BME280;66961;51.482;9.160;2023-06-14T12:50:53;99483.78;;;26.00;27.83
77770;BME280;66961;51.482;9.160;2023-06-14T12:53:18;99479.69;;;26.68;27.45
77770;BME280;66961;51.482;9.160;2023-06-14T12:55:43;99474.78;;;27.50;26.90
77770;BME280;66961;51.482;9.160;2023-06-14T12:58:09;99498.00;;;27.32;27.08
77770;BME280;66961;51.482;9.160;2023-06-14T13:00:35;99480.28;;;26.25;27.77
77770;BME280;66961;51.482;9.160;2023-06-14T13:03:00;99488.97;;;25.96;28.01
77770;BME280;66961;51.482;9.160;2023-06-14T13:05:26;99477.53;;;26.04;27.90